createdAt,value
2023-04-26T00:00:19.000Z,0.00
2023-04-26T00:00:53.000Z,0.00
2023-04-26T00:01:32.000Z,0.00
2023-04-26T00:02:02.000Z,0.00
2023-04-26T00:02:27.000Z,0.00
2023-04-26T00:02:53.000Z,0.00
2023-04-26T00:03:13.000Z,0.00
2023-04-26T00:03:48.000Z,0.00
2023-04-26T00:04:18.000Z,0.00
2023-04-26T00:04:48.000Z,0.00
2023-04-26T00:05:23.000Z,0.00
2023-04-26T00:05:53.000Z,0.00
2023-04-26T00:06:28.000Z,0.00
2023-04-26T00:06:58.000Z,0.00
2023-04-26T00:07:28.000Z,0.00
2023-04-26T00:07:55.000Z,0.00
2023-04-26T00:08:18.000Z,0.00
2023-04-26T00:08:57.000Z,0.00
2023-04-26T00:09:22.000Z,0.00
2023-04-26T00:09:50.000Z,0.00
2023-04-26T00:10:28.000Z,0.00
2023-04-26T00:11:07.000Z,0.00
2023-04-26T00:11:30.000Z,0.00
2023-04-26T00:11:57.000Z,0.00
2023-04-26T00:12:20.000Z,0.00
2023-04-26T00:12:47.000Z,0.00
2023-04-26T00:13:23.000Z,0.00
2023-04-26T00:14:02.000Z,0.00
2023-04-26T00:14:28.000Z,0.00
2023-04-26T00:14:58.000Z,0.00
2023-04-26T00:15:28.000Z,0.00
2023-04-26T00:15:53.000Z,0.00
2023-04-26T00:16:18.000Z,0.00
2023-04-26T00:16:48.000Z,0.00
2023-04-26T00:17:23.000Z,0.00
2023-04-26T00:17:53.000Z,0.00
2023-04-26T00:18:28.000Z,0.00
2023-04-26T00:18:58.000Z,0.00
2023-04-26T00:19:28.000Z,0.00
2023-04-26T00:19:54.000Z,0.00
2023-04-26T00:20:15.000Z,0.00
2023-04-26T00:20:48.000Z,0.00
2023-04-26T00:21:23.000Z,0.00
2023-04-26T00:21:53.000Z,0.00
2023-04-26T00:22:28.000Z,0.00
2023-04-26T00:22:58.000Z,0.00
2023-04-26T00:23:28.000Z,0.00
2023-04-26T00:23:54.000Z,0.00
2023-04-26T00:24:14.000Z,0.00
2023-04-26T00:24:33.000Z,0.00
2023-04-26T00:24:58.000Z,0.00
2023-04-26T00:25:23.000Z,0.00
2023-04-26T00:25:54.000Z,0.00
2023-04-26T00:26:22.000Z,0.00
2023-04-26T00:26:42.000Z,0.00
2023-04-26T00:27:13.000Z,0.00
2023-04-26T00:27:48.000Z,0.00
2023-04-26T00:28:17.000Z,0.00
2023-04-26T00:28:48.000Z,0.00
2023-04-26T00:29:22.000Z,0.00
2023-04-26T00:29:53.000Z,0.00
2023-04-26T00:30:28.000Z,0.00
2023-04-26T00:30:58.000Z,0.00
2023-04-26T00:31:28.000Z,0.00
2023-04-26T00:31:55.000Z,0.00
2023-04-26T00:32:18.000Z,0.00
2023-04-26T00:32:57.000Z,0.00
2023-04-26T00:33:22.000Z,0.00
2023-04-26T00:33:50.000Z,0.00
2023-04-26T00:34:14.000Z,0.00
2023-04-26T00:34:43.000Z,0.00
2023-04-26T00:35:13.000Z,0.00
2023-04-26T00:35:48.000Z,0.00
2023-04-26T00:36:18.000Z,0.00
2023-04-26T00:36:48.000Z,0.00
2023-04-26T00:37:23.000Z,0.00
2023-04-26T00:37:53.000Z,0.00
2023-04-26T00:38:28.000Z,0.00
2023-04-26T00:38:58.000Z,0.00
2023-04-26T00:39:28.000Z,0.00
2023-04-26T00:39:57.000Z,0.00
2023-04-26T00:40:20.000Z,0.00
2023-04-26T00:40:47.000Z,0.00
2023-04-26T00:41:23.000Z,0.00
2023-04-26T00:41:53.000Z,0.00
2023-04-26T00:42:23.000Z,0.00
2023-04-26T00:42:43.000Z,0.00
2023-04-26T00:43:13.000Z,0.00
2023-04-26T00:43:48.000Z,0.00
2023-04-26T00:44:18.000Z,0.00
2023-04-26T00:44:48.000Z,0.00
2023-04-26T00:45:23.000Z,0.00
2023-04-26T00:45:53.000Z,0.00
2023-04-26T00:46:28.000Z,0.00
2023-04-26T00:47:07.000Z,0.00
2023-04-26T00:47:37.000Z,0.00
2023-04-26T00:48:04.000Z,0.00
2023-04-26T00:48:30.000Z,0.00
2023-04-26T00:48:57.000Z,0.00
2023-04-26T00:49:22.000Z,0.00
2023-04-26T00:49:50.000Z,0.00
2023-04-26T00:50:13.000Z,0.00
2023-04-26T00:50:43.000Z,0.00
2023-04-26T00:51:13.000Z,0.00
2023-04-26T00:51:48.000Z,0.00
2023-04-26T00:52:18.000Z,0.00
2023-04-26T00:52:48.000Z,0.00
2023-04-26T00:53:23.000Z,0.00
2023-04-26T00:53:53.000Z,0.00
2023-04-26T00:54:28.000Z,0.00
2023-04-26T00:54:58.000Z,0.00
2023-04-26T00:55:28.000Z,0.00
2023-04-26T00:55:54.000Z,0.00
2023-04-26T00:56:14.000Z,0.00
2023-04-26T00:56:42.000Z,0.00
2023-04-26T00:57:09.000Z,0.00
2023-04-26T00:57:34.000Z,0.00
2023-04-26T00:58:02.000Z,0.00
2023-04-26T00:58:25.000Z,0.00
2023-04-26T00:58:53.000Z,0.00
2023-04-26T00:59:33.000Z,0.00
2023-04-26T00:59:56.000Z,0.00
2023-04-26T01:00:14.000Z,0.00
2023-04-26T01:00:42.000Z,0.00
2023-04-26T01:01:09.000Z,0.00
2023-04-26T01:01:34.000Z,0.00
2023-04-26T01:02:02.000Z,0.00
2023-04-26T01:02:27.000Z,0.00
2023-04-26T01:02:53.000Z,0.00
2023-04-26T01:03:22.000Z,0.00
2023-04-26T01:03:49.000Z,0.00
2023-04-26T01:04:14.000Z,0.00
2023-04-26T01:04:33.000Z,0.00
2023-04-26T01:04:58.000Z,0.00
2023-04-26T01:05:23.000Z,0.00
2023-04-26T01:05:53.000Z,0.00
2023-04-26T01:06:28.000Z,0.00
2023-04-26T01:06:58.000Z,0.00
2023-04-26T01:07:28.000Z,0.00
2023-04-26T01:07:54.000Z,0.00
2023-04-26T01:08:18.000Z,0.00
2023-04-26T01:08:48.000Z,0.00
2023-04-26T01:09:23.000Z,0.00
2023-04-26T01:09:53.000Z,0.00
2023-04-26T01:10:28.000Z,0.00
2023-04-26T01:10:58.000Z,0.00
2023-04-26T01:11:28.000Z,0.00
2023-04-26T01:11:54.000Z,0.00
2023-04-26T01:12:18.000Z,0.00
2023-04-26T01:12:48.000Z,0.00
2023-04-26T01:13:23.000Z,0.00
2023-04-26T01:13:53.000Z,0.00
2023-04-26T01:14:23.000Z,0.00
2023-04-26T01:14:58.000Z,0.00
2023-04-26T01:15:28.000Z,0.00
2023-04-26T01:15:54.000Z,0.00
2023-04-26T01:16:18.000Z,0.00
2023-04-26T01:16:57.000Z,0.00
2023-04-26T01:17:22.000Z,0.00
2023-04-26T01:17:50.000Z,0.00
2023-04-26T01:18:28.000Z,0.00
2023-04-26T01:18:58.000Z,0.00
2023-04-26T01:19:28.000Z,0.00
2023-04-26T01:19:54.000Z,0.00
2023-04-26T01:20:18.000Z,0.00
2023-04-26T01:20:48.000Z,0.00
2023-04-26T01:21:23.000Z,0.00
2023-04-26T01:21:53.000Z,0.00
2023-04-26T01:22:28.000Z,0.00
2023-04-26T01:22:58.000Z,0.00
2023-04-26T01:23:28.000Z,0.00
2023-04-26T01:23:54.000Z,0.00
2023-04-26T01:24:14.000Z,0.00
2023-04-26T01:24:42.000Z,0.00
2023-04-26T01:25:12.000Z,0.00
2023-04-26T01:25:39.000Z,0.00
2023-04-26T01:26:02.000Z,0.00
2023-04-26T01:26:27.000Z,0.00
2023-04-26T01:26:53.000Z,0.00
2023-04-26T01:27:22.000Z,0.00
2023-04-26T01:27:49.000Z,0.00
2023-04-26T01:28:14.000Z,0.00
2023-04-26T01:28:42.000Z,0.00
2023-04-26T01:29:09.000Z,0.00
2023-04-26T01:29:34.000Z,0.00
2023-04-26T01:30:02.000Z,0.00
2023-04-26T01:30:25.000Z,0.00
2023-04-26T01:30:53.000Z,0.00
2023-04-26T01:31:22.000Z,0.00
2023-04-26T01:31:49.000Z,0.00
2023-04-26T01:32:19.000Z,0.00
2023-04-26T01:32:48.000Z,0.00
2023-04-26T01:33:23.000Z,0.00
2023-04-26T01:33:53.000Z,0.00
2023-04-26T01:34:28.000Z,0.00
2023-04-26T01:34:58.000Z,0.00
2023-04-26T01:35:28.000Z,0.00
2023-04-26T01:35:53.000Z,0.00
2023-04-26T01:36:18.000Z,0.00
2023-04-26T01:36:48.000Z,0.00
2023-04-26T01:37:23.000Z,0.00
2023-04-26T01:37:53.000Z,0.00
2023-04-26T01:38:28.000Z,0.00
2023-04-26T01:39:07.000Z,0.00
2023-04-26T01:39:30.000Z,0.00
2023-04-26T01:39:57.000Z,0.00
2023-04-26T01:40:18.000Z,0.00
2023-04-26T01:40:48.000Z,0.00
2023-04-26T01:41:23.000Z,0.00
2023-04-26T01:41:53.000Z,0.00
2023-04-26T01:42:28.000Z,0.00
2023-04-26T01:42:58.000Z,0.00
2023-04-26T01:43:28.000Z,0.00
2023-04-26T01:43:55.000Z,0.00
2023-04-26T01:44:18.000Z,0.00
2023-04-26T01:44:48.000Z,0.00
2023-04-26T01:45:23.000Z,0.00
2023-04-26T01:45:54.000Z,0.00
2023-04-26T01:46:24.000Z,0.00
2023-04-26T01:46:58.000Z,0.00
2023-04-26T01:47:28.000Z,0.00
2023-04-26T01:47:54.000Z,0.00
2023-04-26T01:48:18.000Z,0.00
2023-04-26T01:48:48.000Z,0.00
2023-04-26T01:49:23.000Z,0.00
2023-04-26T01:49:54.000Z,0.00
2023-04-26T01:50:28.000Z,0.00
2023-04-26T01:50:58.000Z,0.00
2023-04-26T01:51:28.000Z,0.00
2023-04-26T01:51:53.000Z,0.00
2023-04-26T01:52:18.000Z,0.00
2023-04-26T01:52:48.000Z,0.00
2023-04-26T01:53:23.000Z,0.00
2023-04-26T01:53:53.000Z,0.00
2023-04-26T01:54:28.000Z,0.00
2023-04-26T01:54:58.000Z,0.00
2023-04-26T01:55:28.000Z,0.00
2023-04-26T01:55:54.000Z,0.00
2023-04-26T01:56:18.000Z,0.00
2023-04-26T01:56:48.000Z,0.00
2023-04-26T01:57:23.000Z,0.00
2023-04-26T01:57:53.000Z,0.00
2023-04-26T01:58:28.000Z,0.00
2023-04-26T01:58:58.000Z,0.00
2023-04-26T01:59:37.000Z,0.00
2023-04-26T02:00:04.000Z,0.00
2023-04-26T02:00:33.000Z,0.00
2023-04-26T02:00:58.000Z,0.00
2023-04-26T02:01:23.000Z,0.00
2023-04-26T02:01:53.000Z,0.00
2023-04-26T02:02:23.000Z,0.00
2023-04-26T02:02:43.000Z,0.00
2023-04-26T02:03:13.000Z,0.00
2023-04-26T02:03:48.000Z,0.00
2023-04-26T02:04:14.000Z,0.00
2023-04-26T02:04:53.000Z,0.00
2023-04-26T02:05:23.000Z,0.00
2023-04-26T02:05:53.000Z,0.00
2023-04-26T02:06:29.000Z,0.00
2023-04-26T02:06:58.000Z,0.00
2023-04-26T02:07:28.000Z,0.00
2023-04-26T02:07:53.000Z,0.00
2023-04-26T02:08:18.000Z,0.00
2023-04-26T02:08:48.000Z,0.00
2023-04-26T02:09:23.000Z,0.00
2023-04-26T02:09:53.000Z,0.00
2023-04-26T02:10:37.000Z,0.00
2023-04-26T02:11:07.000Z,0.00
2023-04-26T02:11:30.000Z,0.00
2023-04-26T02:11:57.000Z,0.00
2023-04-26T02:12:30.000Z,0.00
2023-04-26T02:12:57.000Z,0.00
2023-04-26T02:13:22.000Z,0.00
2023-04-26T02:13:50.000Z,0.00
2023-04-26T02:14:14.000Z,0.00
2023-04-26T02:14:42.000Z,0.00
2023-04-26T02:15:07.000Z,0.00
2023-04-26T02:15:30.000Z,0.00
2023-04-26T02:15:57.000Z,0.00
2023-04-26T02:16:20.000Z,0.00
2023-04-26T02:16:47.000Z,0.00
2023-04-26T02:17:23.000Z,0.00
2023-04-26T02:18:02.000Z,0.00
2023-04-26T02:18:25.000Z,0.00
2023-04-26T02:18:53.000Z,0.00
2023-04-26T02:19:33.000Z,0.00
2023-04-26T02:19:54.000Z,0.00
2023-04-26T02:20:18.000Z,0.00
2023-04-26T02:20:48.000Z,0.00
2023-04-26T02:21:23.000Z,0.00
2023-04-26T02:21:53.000Z,0.00
2023-04-26T02:22:28.000Z,0.00
2023-04-26T02:22:58.000Z,0.00
2023-04-26T02:23:28.000Z,0.00
2023-04-26T02:23:53.000Z,0.00
2023-04-26T02:24:18.000Z,0.00
2023-04-26T02:24:48.000Z,0.00
2023-04-26T02:25:22.000Z,0.00
2023-04-26T02:25:50.000Z,0.00
2023-04-26T02:26:14.000Z,0.00
2023-04-26T02:26:42.000Z,0.00
2023-04-26T02:27:13.000Z,0.00
2023-04-26T02:27:48.000Z,0.00
2023-04-26T02:28:18.000Z,0.00
2023-04-26T02:28:48.000Z,0.00
2023-04-26T02:29:23.000Z,0.00
2023-04-26T02:29:53.000Z,0.00
2023-04-26T02:30:28.000Z,0.00
2023-04-26T02:30:58.000Z,0.00
2023-04-26T02:31:28.000Z,0.00
2023-04-26T02:31:54.000Z,0.00
2023-04-26T02:32:18.000Z,0.00
2023-04-26T02:32:53.000Z,0.00
2023-04-26T02:33:32.000Z,0.00
2023-04-26T02:34:02.000Z,0.00
2023-04-26T02:34:28.000Z,0.00
2023-04-26T02:34:58.000Z,0.00
2023-04-26T02:35:28.000Z,0.00
2023-04-26T02:35:54.000Z,0.00
2023-04-26T02:36:18.000Z,0.00
2023-04-26T02:36:48.000Z,0.00
2023-04-26T02:37:23.000Z,0.00
2023-04-26T02:37:53.000Z,0.00
2023-04-26T02:38:28.000Z,0.00
2023-04-26T02:38:58.000Z,0.00
2023-04-26T02:39:28.000Z,0.00
2023-04-26T02:39:53.000Z,0.00
2023-04-26T02:40:14.000Z,0.00
2023-04-26T02:40:33.000Z,0.00
2023-04-26T02:40:58.000Z,0.00
2023-04-26T02:41:23.000Z,0.00
2023-04-26T02:41:53.000Z,0.00
2023-04-26T02:42:28.000Z,0.00
2023-04-26T02:42:58.000Z,0.00
2023-04-26T02:43:28.000Z,0.00
2023-04-26T02:43:54.000Z,0.00
2023-04-26T02:44:18.000Z,0.00
2023-04-26T02:44:48.000Z,0.00
2023-04-26T02:45:23.000Z,0.00
2023-04-26T02:45:53.000Z,0.00
2023-04-26T02:46:29.000Z,0.00
2023-04-26T02:46:53.000Z,0.00
2023-04-26T02:47:22.000Z,0.00
2023-04-26T02:47:49.000Z,0.00
2023-04-26T02:48:14.000Z,0.00
2023-04-26T02:48:53.000Z,0.00
2023-04-26T02:49:32.000Z,0.00
2023-04-26T02:50:02.000Z,0.00
2023-04-26T02:50:25.000Z,0.00
2023-04-26T02:50:53.000Z,0.00
2023-04-26T02:51:22.000Z,0.00
2023-04-26T02:51:48.000Z,0.00
2023-04-26T02:52:18.000Z,0.00
2023-04-26T02:52:48.000Z,0.00
2023-04-26T02:53:23.000Z,0.00
2023-04-26T02:53:53.000Z,0.00
2023-04-26T02:54:28.000Z,0.00
2023-04-26T02:54:58.000Z,0.00
2023-04-26T02:55:28.000Z,0.00
2023-04-26T02:55:53.000Z,0.00
2023-04-26T02:56:18.000Z,0.00
2023-04-26T02:56:48.000Z,0.00
2023-04-26T02:57:32.000Z,0.00
2023-04-26T02:57:53.000Z,0.00
2023-04-26T02:58:28.000Z,0.00
2023-04-26T02:58:58.000Z,0.00
2023-04-26T02:59:28.000Z,0.00
2023-04-26T02:59:54.000Z,0.00
2023-04-26T03:00:18.000Z,0.00
2023-04-26T03:00:48.000Z,0.00
2023-04-26T03:01:23.000Z,0.00
2023-04-26T03:01:53.000Z,0.00
2023-04-26T03:02:28.000Z,0.00
2023-04-26T03:02:58.000Z,0.00
2023-04-26T03:03:28.000Z,0.00
2023-04-26T03:03:54.000Z,0.00
2023-04-26T03:04:14.000Z,0.00
2023-04-26T03:04:33.000Z,0.00
2023-04-26T03:04:58.000Z,0.00
2023-04-26T03:05:23.000Z,0.00
2023-04-26T03:05:53.000Z,0.00
2023-04-26T03:06:23.000Z,0.00
2023-04-26T03:06:58.000Z,0.00
2023-04-26T03:07:28.000Z,0.00
2023-04-26T03:07:54.000Z,0.00
2023-04-26T03:08:18.000Z,0.00
2023-04-26T03:08:48.000Z,0.00
2023-04-26T03:09:23.000Z,0.00
2023-04-26T03:09:53.000Z,0.00
2023-04-26T03:10:28.000Z,0.00
2023-04-26T03:10:53.000Z,0.00
2023-04-26T03:11:12.000Z,0.00
2023-04-26T03:11:48.000Z,0.00
2023-04-26T03:12:27.000Z,0.00
2023-04-26T03:12:57.000Z,0.00
2023-04-26T03:13:23.000Z,0.00
2023-04-26T03:13:50.000Z,0.00
2023-04-26T03:14:14.000Z,0.00
2023-04-26T03:14:38.000Z,0.00
2023-04-26T03:15:07.000Z,0.00
2023-04-26T03:15:37.000Z,0.00
2023-04-26T03:16:03.000Z,0.00
2023-04-26T03:16:33.000Z,0.00
2023-04-26T03:16:54.000Z,0.00
2023-04-26T03:17:23.000Z,0.00
2023-04-26T03:17:53.000Z,0.00
2023-04-26T03:18:28.000Z,0.00
2023-04-26T03:18:58.000Z,0.00
2023-04-26T03:19:28.000Z,0.00
2023-04-26T03:19:54.000Z,0.00
2023-04-26T03:20:18.000Z,0.00
2023-04-26T03:20:48.000Z,0.00
2023-04-26T03:21:23.000Z,0.00
2023-04-26T03:22:02.000Z,0.00
2023-04-26T03:22:25.000Z,0.00
2023-04-26T03:22:53.000Z,0.00
2023-04-26T03:23:22.000Z,0.00
2023-04-26T03:23:49.000Z,0.00
2023-04-26T03:24:14.000Z,0.00
2023-04-26T03:24:42.000Z,0.00
2023-04-26T03:25:06.000Z,0.00
2023-04-26T03:25:38.000Z,0.00
2023-04-26T03:26:13.000Z,0.00
2023-04-26T03:26:43.000Z,0.00
2023-04-26T03:27:13.000Z,0.00
2023-04-26T03:27:43.000Z,0.00
2023-04-26T03:28:03.000Z,0.00
2023-04-26T03:28:33.000Z,0.00
2023-04-26T03:28:58.000Z,0.00
2023-04-26T03:29:23.000Z,0.00
2023-04-26T03:29:53.000Z,0.00
2023-04-26T03:30:28.000Z,0.00
2023-04-26T03:30:53.000Z,0.00
2023-04-26T03:31:22.000Z,0.00
2023-04-26T03:31:49.000Z,0.00
2023-04-26T03:32:14.000Z,0.00
2023-04-26T03:32:42.000Z,0.00
2023-04-26T03:33:12.000Z,0.00
2023-04-26T03:33:39.000Z,0.00
2023-04-26T03:34:02.000Z,0.00
2023-04-26T03:34:28.000Z,0.00
2023-04-26T03:34:53.000Z,0.00
2023-04-26T03:35:22.000Z,0.00
2023-04-26T03:35:49.000Z,0.00
2023-04-26T03:36:14.000Z,0.00
2023-04-26T03:36:53.000Z,0.00
2023-04-26T03:37:32.000Z,0.00
2023-04-26T03:38:02.000Z,0.00
2023-04-26T03:38:25.000Z,0.00
2023-04-26T03:38:58.000Z,0.00
2023-04-26T03:39:28.000Z,0.00
2023-04-26T03:39:54.000Z,0.00
2023-04-26T03:40:18.000Z,0.00
2023-04-26T03:40:48.000Z,0.00
2023-04-26T03:41:23.000Z,0.00
2023-04-26T03:41:53.000Z,0.00
2023-04-26T03:42:28.000Z,0.00
2023-04-26T03:42:58.000Z,0.00
2023-04-26T03:43:28.000Z,0.00
2023-04-26T03:43:53.000Z,0.00
2023-04-26T03:44:19.000Z,0.00
2023-04-26T03:44:48.000Z,0.00
2023-04-26T03:45:23.000Z,0.00
2023-04-26T03:45:53.000Z,0.00
2023-04-26T03:46:28.000Z,0.00
2023-04-26T03:46:58.000Z,0.00
2023-04-26T03:47:28.000Z,0.00
2023-04-26T03:47:54.000Z,0.00
2023-04-26T03:48:18.000Z,0.00
2023-04-26T03:48:48.000Z,0.00
2023-04-26T03:49:23.000Z,0.00
2023-04-26T03:49:53.000Z,0.00
2023-04-26T03:50:37.000Z,0.00
2023-04-26T03:51:07.000Z,0.00
2023-04-26T03:51:30.000Z,0.00
2023-04-26T03:51:54.000Z,0.00
2023-04-26T03:52:18.000Z,0.00
2023-04-26T03:52:48.000Z,0.00
2023-04-26T03:53:23.000Z,0.00
2023-04-26T03:53:53.000Z,0.00
2023-04-26T03:54:23.000Z,0.00
2023-04-26T03:54:43.000Z,0.00
2023-04-26T03:55:13.000Z,0.00
2023-04-26T03:55:48.000Z,0.00
2023-04-26T03:56:18.000Z,0.00
2023-04-26T03:56:48.000Z,0.00
2023-04-26T03:57:32.000Z,0.00
2023-04-26T03:58:02.000Z,0.00
2023-04-26T03:58:27.000Z,0.00
2023-04-26T03:58:53.000Z,0.00
2023-04-26T03:59:26.000Z,0.00
2023-04-26T03:59:52.000Z,0.00
2023-04-26T04:00:19.000Z,0.00
2023-04-26T04:00:53.000Z,0.00
2023-04-26T04:01:32.000Z,0.00
2023-04-26T04:02:02.000Z,0.00
2023-04-26T04:02:27.000Z,0.00
2023-04-26T04:02:58.000Z,0.00
2023-04-26T04:03:28.000Z,0.00
2023-04-26T04:03:54.000Z,0.00
2023-04-26T04:04:18.000Z,0.00
2023-04-26T04:04:48.000Z,0.00
2023-04-26T04:05:23.000Z,0.00
2023-04-26T04:05:53.000Z,0.00
2023-04-26T04:06:29.000Z,0.00
2023-04-26T04:06:58.000Z,0.00
2023-04-26T04:07:28.000Z,0.00
2023-04-26T04:07:55.000Z,0.36
2023-04-26T04:08:18.000Z,0.00
2023-04-26T04:08:53.000Z,0.36
2023-04-26T04:09:23.000Z,0.85
2023-04-26T04:10:02.000Z,0.36
2023-04-26T04:10:25.000Z,0.36
2023-04-26T04:10:53.000Z,0.85
2023-04-26T04:11:22.000Z,1.22
2023-04-26T04:11:49.000Z,0.36
2023-04-26T04:12:18.000Z,0.85
2023-04-26T04:12:48.000Z,0.85
2023-04-26T04:13:23.000Z,1.22
2023-04-26T04:13:53.000Z,1.22
2023-04-26T04:14:28.000Z,2.57
2023-04-26T04:14:58.000Z,1.71
2023-04-26T04:15:28.000Z,1.71
2023-04-26T04:15:53.000Z,2.08
2023-04-26T04:16:18.000Z,1.71
2023-04-26T04:16:49.000Z,2.57
2023-04-26T04:17:23.000Z,2.57
2023-04-26T04:17:53.000Z,2.08
2023-04-26T04:18:28.000Z,2.94
2023-04-26T04:18:58.000Z,2.94
2023-04-26T04:19:28.000Z,2.57
2023-04-26T04:19:54.000Z,3.43
2023-04-26T04:20:18.000Z,4.28
2023-04-26T04:20:48.000Z,3.43
2023-04-26T04:21:23.000Z,3.43
2023-04-26T04:21:53.000Z,4.28
2023-04-26T04:22:28.000Z,4.28
2023-04-26T04:22:58.000Z,3.79
2023-04-26T04:23:28.000Z,4.77
2023-04-26T04:23:57.000Z,4.77
2023-04-26T04:24:31.000Z,5.14
2023-04-26T04:24:57.000Z,5.14
2023-04-26T04:25:23.000Z,4.28
2023-04-26T04:25:53.000Z,5.14
2023-04-26T04:26:23.000Z,6.48
2023-04-26T04:26:58.000Z,6.48
2023-04-26T04:27:28.000Z,5.99
2023-04-26T04:27:54.000Z,6.48
2023-04-26T04:28:18.000Z,6.85
2023-04-26T04:28:48.000Z,6.85
2023-04-26T04:29:23.000Z,7.70
2023-04-26T04:29:53.000Z,7.34
2023-04-26T04:30:28.000Z,7.70
2023-04-26T04:30:58.000Z,8.19
2023-04-26T04:31:28.000Z,8.56
2023-04-26T04:31:53.000Z,8.19
2023-04-26T04:32:18.000Z,8.56
2023-04-26T04:32:48.000Z,8.19
2023-04-26T04:33:23.000Z,9.05
2023-04-26T04:33:53.000Z,8.56
2023-04-26T04:34:28.000Z,9.54
2023-04-26T04:34:59.000Z,9.05
2023-04-26T04:35:28.000Z,10.77
2023-04-26T04:35:55.000Z,9.91
2023-04-26T04:36:18.000Z,11.25
2023-04-26T04:36:48.000Z,10.77
2023-04-26T04:37:33.000Z,11.25
2023-04-26T04:37:53.000Z,11.25
2023-04-26T04:38:28.000Z,12.48
2023-04-26T04:38:58.000Z,11.62
2023-04-26T04:39:28.000Z,12.48
2023-04-26T04:39:56.000Z,12.97
2023-04-26T04:40:18.000Z,12.11
2023-04-26T04:40:48.000Z,13.33
2023-04-26T04:41:23.000Z,13.33
2023-04-26T04:41:53.000Z,13.33
2023-04-26T04:42:23.000Z,13.33
2023-04-26T04:42:43.000Z,13.82
2023-04-26T04:43:13.000Z,14.31
2023-04-26T04:43:48.000Z,13.82
2023-04-26T04:44:15.000Z,14.31
2023-04-26T04:44:43.000Z,14.68
2023-04-26T04:45:09.000Z,15.17
2023-04-26T04:45:35.000Z,15.17
2023-04-26T04:45:53.000Z,16.02
2023-04-26T04:46:28.000Z,14.68
2023-04-26T04:46:58.000Z,15.53
2023-04-26T04:47:28.000Z,16.39
2023-04-26T04:48:01.000Z,16.88
2023-04-26T04:48:33.000Z,17.25
2023-04-26T04:48:58.000Z,16.39
2023-04-26T04:49:33.000Z,16.39
2023-04-26T04:49:53.000Z,16.88
2023-04-26T04:50:28.000Z,17.73
2023-04-26T04:50:58.000Z,17.25
2023-04-26T04:51:28.000Z,18.11
2023-04-26T04:51:58.000Z,18.11
2023-04-26T04:52:20.000Z,18.60
2023-04-26T04:52:48.000Z,19.08
2023-04-26T04:53:23.000Z,19.08
2023-04-26T04:53:53.000Z,19.94
2023-04-26T04:54:28.000Z,19.94
2023-04-26T04:54:58.000Z,19.45
2023-04-26T04:55:28.000Z,19.94
2023-04-26T04:55:54.000Z,20.31
2023-04-26T04:56:18.000Z,20.31
2023-04-26T04:56:48.000Z,20.31
2023-04-26T04:57:23.000Z,21.16
2023-04-26T04:57:53.000Z,21.16
2023-04-26T04:58:33.000Z,22.02
2023-04-26T04:58:59.000Z,22.51
2023-04-26T04:59:33.000Z,24.71
2023-04-26T04:59:56.000Z,25.56
2023-04-26T05:00:15.000Z,27.65
2023-04-26T05:00:43.000Z,28.63
2023-04-26T05:01:09.000Z,29.85
2023-04-26T05:01:35.000Z,29.85
2023-04-26T05:02:03.000Z,30.34
2023-04-26T05:02:28.000Z,31.56
2023-04-26T05:02:58.000Z,31.19
2023-04-26T05:03:28.000Z,32.05
2023-04-26T05:03:54.000Z,31.19
2023-04-26T05:04:18.000Z,31.19
2023-04-26T05:04:48.000Z,33.76
2023-04-26T05:05:23.000Z,34.25
2023-04-26T05:05:53.000Z,34.25
2023-04-26T05:06:28.000Z,35.11
2023-04-26T05:06:58.000Z,35.48
2023-04-26T05:07:28.000Z,36.33
2023-04-26T05:07:54.000Z,35.97
2023-04-26T05:08:18.000Z,36.82
2023-04-26T05:08:57.000Z,36.82
2023-04-26T05:09:22.000Z,37.68
2023-04-26T05:09:50.000Z,37.68
2023-04-26T05:10:14.000Z,36.82
2023-04-26T05:10:47.000Z,39.02
2023-04-26T05:11:21.000Z,39.88
2023-04-26T05:11:47.000Z,39.39
2023-04-26T05:12:18.000Z,40.73
2023-04-26T05:12:48.000Z,41.59
2023-04-26T05:13:23.000Z,42.45
2023-04-26T05:13:53.000Z,42.94
2023-04-26T05:14:23.000Z,42.45
2023-04-26T05:14:58.000Z,42.94
2023-04-26T05:15:28.000Z,41.59
2023-04-26T05:15:54.000Z,40.73
2023-04-26T05:16:18.000Z,41.10
2023-04-26T05:16:48.000Z,41.10
2023-04-26T05:17:23.000Z,40.73
2023-04-26T05:18:02.000Z,40.73
2023-04-26T05:18:28.000Z,41.59
2023-04-26T05:18:58.000Z,41.10
2023-04-26T05:19:28.000Z,41.59
2023-04-26T05:19:53.000Z,41.59
2023-04-26T05:20:18.000Z,41.59
2023-04-26T05:20:48.000Z,42.94
2023-04-26T05:21:23.000Z,42.94
2023-04-26T05:21:53.000Z,42.45
2023-04-26T05:22:29.000Z,43.80
2023-04-26T05:22:58.000Z,43.80
2023-04-26T05:23:28.000Z,43.80
2023-04-26T05:23:54.000Z,45.02
2023-04-26T05:24:19.000Z,45.87
2023-04-26T05:24:46.000Z,45.87
2023-04-26T05:25:12.000Z,45.51
2023-04-26T05:25:38.000Z,47.22
2023-04-26T05:26:08.000Z,46.36
2023-04-26T05:26:43.000Z,48.07
2023-04-26T05:27:12.000Z,48.56
2023-04-26T05:27:48.000Z,48.07
2023-04-26T05:28:18.000Z,48.07
2023-04-26T05:28:48.000Z,48.56
2023-04-26T05:29:23.000Z,49.79
2023-04-26T05:29:53.000Z,49.42
2023-04-26T05:30:23.000Z,49.42
2023-04-26T05:30:58.000Z,50.28
2023-04-26T05:31:29.000Z,49.79
2023-04-26T05:31:57.000Z,49.79
2023-04-26T05:32:20.000Z,51.50
2023-04-26T05:32:48.000Z,51.99
2023-04-26T05:33:23.000Z,51.99
2023-04-26T05:33:53.000Z,52.85
2023-04-26T05:34:28.000Z,53.34
2023-04-26T05:34:58.000Z,53.70
2023-04-26T05:35:28.000Z,53.70
2023-04-26T05:36:01.000Z,55.05
2023-04-26T05:36:33.000Z,56.27
2023-04-26T05:36:58.000Z,56.76
2023-04-26T05:37:23.000Z,57.62
2023-04-26T05:37:53.000Z,58.48
2023-04-26T05:38:37.000Z,59.82
2023-04-26T05:39:07.000Z,62.39
2023-04-26T05:39:30.000Z,64.59
2023-04-26T05:39:58.000Z,65.94
2023-04-26T05:40:18.000Z,69.73
2023-04-26T05:40:48.000Z,72.79
2023-04-26T05:41:23.000Z,75.85
2023-04-26T05:41:53.000Z,77.56
2023-04-26T05:42:28.000Z,78.41
2023-04-26T05:42:58.000Z,78.90
2023-04-26T05:43:28.000Z,80.25
2023-04-26T05:43:55.000Z,80.62
2023-04-26T05:44:18.000Z,80.62
2023-04-26T05:44:48.000Z,80.62
2023-04-26T05:45:23.000Z,81.10
2023-04-26T05:46:03.000Z,81.97
2023-04-26T05:46:25.000Z,84.04
2023-04-26T05:46:53.000Z,84.53
2023-04-26T05:47:23.000Z,85.88
2023-04-26T05:47:53.000Z,87.59
2023-04-26T05:48:19.000Z,87.96
2023-04-26T05:48:47.000Z,91.02
2023-04-26T05:49:13.000Z,91.02
2023-04-26T05:49:39.000Z,92.73
2023-04-26T05:50:03.000Z,93.58
2023-04-26T05:50:28.000Z,94.93
2023-04-26T05:50:53.000Z,95.79
2023-04-26T05:51:23.000Z,97.13
2023-04-26T05:51:53.000Z,98.85
2023-04-26T05:52:19.000Z,100.19
2023-04-26T05:52:47.000Z,101.05
2023-04-26T05:53:13.000Z,101.90
2023-04-26T05:53:39.000Z,102.76
2023-04-26T05:54:03.000Z,104.10
2023-04-26T05:54:25.000Z,106.19
2023-04-26T05:54:53.000Z,105.33
2023-04-26T05:55:13.000Z,109.73
2023-04-26T05:55:43.000Z,110.10
2023-04-26T05:56:18.000Z,112.30
2023-04-26T05:56:48.000Z,113.16
2023-04-26T05:57:23.000Z,114.51
2023-04-26T05:57:53.000Z,115.73
2023-04-26T05:58:23.000Z,117.44
2023-04-26T05:58:43.000Z,117.07
2023-04-26T05:59:13.000Z,118.78
2023-04-26T05:59:43.000Z,121.36
2023-04-26T06:00:03.000Z,120.13
2023-04-26T06:00:33.000Z,120.13
2023-04-26T06:01:04.000Z,113.16
2023-04-26T06:01:34.000Z,123.19
2023-04-26T06:02:02.000Z,122.70
2023-04-26T06:02:25.000Z,123.56
2023-04-26T06:02:53.000Z,122.70
2023-04-26T06:03:13.000Z,121.85
2023-04-26T06:03:43.000Z,117.44
2023-04-26T06:04:18.000Z,115.73
2023-04-26T06:04:48.000Z,116.58
2023-04-26T06:05:23.000Z,110.59
2023-04-26T06:05:53.000Z,110.96
2023-04-26T06:06:23.000Z,111.82
2023-04-26T06:06:58.000Z,113.16
2023-04-26T06:07:28.000Z,114.02
2023-04-26T06:07:53.000Z,116.22
2023-04-26T06:08:18.000Z,116.58
2023-04-26T06:08:57.000Z,125.76
2023-04-26T06:09:23.000Z,130.04
2023-04-26T06:09:50.000Z,133.59
2023-04-26T06:10:14.000Z,134.44
2023-04-26T06:10:38.000Z,132.24
2023-04-26T06:11:07.000Z,131.88
2023-04-26T06:11:31.000Z,127.47
2023-04-26T06:11:57.000Z,131.39
2023-04-26T06:12:20.000Z,137.02
2023-04-26T06:12:47.000Z,138.36
2023-04-26T06:13:23.000Z,133.59
2023-04-26T06:13:50.000Z,137.02
2023-04-26T06:14:06.000Z,135.67
2023-04-26T06:14:23.000Z,137.87
2023-04-26T06:14:43.000Z,138.73
2023-04-26T06:15:12.000Z,142.64
2023-04-26T06:15:43.000Z,145.70
2023-04-26T06:16:03.000Z,146.19
2023-04-26T06:16:33.000Z,147.41
2023-04-26T06:16:54.000Z,141.78
2023-04-26T06:17:23.000Z,144.36
2023-04-26T06:17:53.000Z,138.73
2023-04-26T06:18:23.000Z,137.02
2023-04-26T06:18:43.000Z,136.65
2023-04-26T06:19:13.000Z,141.78
2023-04-26T06:19:43.000Z,150.96
2023-04-26T06:20:18.000Z,150.47
2023-04-26T06:20:48.000Z,141.42
2023-04-26T06:21:23.000Z,129.19
2023-04-26T06:21:53.000Z,137.02
2023-04-26T06:22:23.000Z,140.07
2023-04-26T06:22:58.000Z,135.30
2023-04-26T06:23:28.000Z,143.99
2023-04-26T06:23:53.000Z,147.05
2023-04-26T06:24:18.000Z,157.81